createdAt,value
2023-12-08T00:01:29.770Z,947.6375122
2023-12-08T00:02:31.701Z,947.6525269
2023-12-08T00:03:32.773Z,947.7191162
2023-12-08T00:04:34.692Z,947.6914063
2023-12-08T00:05:35.846Z,947.6934204
2023-12-08T00:06:37.724Z,947.6958008
2023-12-08T00:07:39.029Z,947.6837769
2023-12-08T00:08:40.777Z,947.6791992
2023-12-08T00:09:42.089Z,947.7195435
2023-12-08T00:10:43.825Z,947.7514038
2023-12-08T00:11:45.062Z,947.7272949
2023-12-08T00:12:46.740Z,947.7647095
2023-12-08T00:13:48.048Z,947.7042236
2023-12-08T00:14:49.795Z,947.7457886
2023-12-08T00:15:51.075Z,947.7748413
2023-12-08T00:16:52.703Z,947.7633057
2023-12-08T00:17:54.204Z,947.7885742
2023-12-08T00:18:54.842Z,947.7327881
2023-12-08T00:19:56.079Z,947.7214355
2023-12-08T00:20:57.686Z,947.75
2023-12-08T00:22:29.013Z,947.7373657
2023-12-08T00:23:30.792Z,947.7171631
2023-12-08T00:24:32.270Z,947.7143555
2023-12-08T00:25:33.790Z,947.729126
2023-12-08T00:26:35.331Z,947.7547607
2023-12-08T00:27:37.780Z,947.789856
2023-12-08T00:28:39.250Z,947.7592163
2023-12-08T00:29:40.801Z,947.7478027
2023-12-08T00:30:42.297Z,947.694458
2023-12-08T00:31:43.787Z,947.6765747
2023-12-08T00:32:45.266Z,947.6995239
2023-12-08T00:33:46.387Z,947.703125
2023-12-08T00:34:47.262Z,947.7076416
2023-12-08T00:35:49.142Z,947.6090698
2023-12-08T00:36:50.325Z,947.5823364
2023-12-08T00:37:51.811Z,947.6392212
2023-12-08T00:38:52.815Z,947.6507568
2023-12-08T00:39:54.158Z,947.7036133
2023-12-08T00:40:55.685Z,947.6609497
2023-12-08T00:42:28.260Z,947.6202393
2023-12-08T00:43:29.635Z,947.5454712
2023-12-08T00:44:30.774Z,947.609375
2023-12-08T00:45:32.213Z,947.6461182
2023-12-08T00:46:33.761Z,947.5650024
2023-12-08T00:47:35.371Z,947.5725098
2023-12-08T00:48:36.841Z,947.5985718
2023-12-08T00:49:38.717Z,947.6190796
2023-12-08T00:50:39.765Z,947.7059326
2023-12-08T00:51:41.641Z,947.6429443
2023-12-08T00:52:42.772Z,947.6609497
2023-12-08T00:53:43.665Z,947.7961426
2023-12-08T00:54:45.087Z,947.7727051
2023-12-08T00:55:46.701Z,947.7247925
2023-12-08T00:56:48.064Z,947.7982788
2023-12-08T00:57:49.788Z,947.8036499
2023-12-08T00:58:50.996Z,947.7799072
2023-12-08T00:59:52.796Z,947.7857666
2023-12-08T01:00:54.050Z,947.8051758
2023-12-08T01:01:55.660Z,947.7993774
2023-12-08T01:02:56.890Z,947.848877
2023-12-08T01:04:28.612Z,947.8226318
2023-12-08T01:05:29.183Z,947.7801514
2023-12-08T01:06:30.711Z,947.84021
2023-12-08T01:07:32.008Z,947.8562012
2023-12-08T01:08:33.727Z,947.8795166
2023-12-08T01:09:34.760Z,947.932251
2023-12-08T01:10:36.144Z,947.9202881
2023-12-08T01:11:36.801Z,947.899353
2023-12-08T01:12:38.401Z,947.9453125
2023-12-08T01:13:40.087Z,947.9797363
2023-12-08T01:14:41.579Z,948.0170288
2023-12-08T01:15:43.548Z,948.0249023
2023-12-08T01:16:45.012Z,948.1168213
2023-12-08T01:17:46.629Z,948.1772461
2023-12-08T01:18:48.176Z,948.1514893
2023-12-08T01:19:49.925Z,948.1342773
2023-12-08T01:20:51.063Z,948.0900879
2023-12-08T01:21:52.821Z,948.1057739
2023-12-08T01:22:54.251Z,948.090332
2023-12-08T01:23:55.688Z,948.0736084
2023-12-08T01:24:56.639Z,948.0477295
2023-12-08T01:26:29.785Z,947.9801025
2023-12-08T01:27:31.664Z,947.9453125
2023-12-08T01:28:33.009Z,947.9760742
2023-12-08T01:29:34.755Z,947.9935303
2023-12-08T01:30:35.825Z,947.9699097
2023-12-08T01:31:36.415Z,947.9276733
2023-12-08T01:32:37.999Z,947.8859253
2023-12-08T01:33:39.089Z,947.8439941
2023-12-08T01:34:40.776Z,947.826416
2023-12-08T01:35:42.151Z,947.7734375
2023-12-08T01:36:44.396Z,947.7265625
2023-12-08T01:37:44.389Z,947.6990356
2023-12-08T01:38:46.048Z,947.6906128
2023-12-08T01:39:47.031Z,947.7223511
2023-12-08T01:40:48.546Z,947.6870117
2023-12-08T01:41:50.197Z,947.6954956
2023-12-08T01:42:51.762Z,947.6465454
2023-12-08T01:43:53.011Z,947.6329956
2023-12-08T01:44:54.858Z,947.6503296
2023-12-08T01:45:56.513Z,947.7229614
2023-12-08T01:47:30.401Z,947.7473145
2023-12-08T01:48:31.354Z,947.7373657
2023-12-08T01:49:32.887Z,947.8052979
2023-12-08T01:50:34.297Z,947.7201538
2023-12-08T01:51:35.836Z,947.7814331
2023-12-08T01:52:36.415Z,947.7282104
2023-12-08T01:53:38.004Z,947.7471924
2023-12-08T01:54:39.011Z,947.7803345
2023-12-08T01:55:40.755Z,947.7249756
2023-12-08T01:56:42.151Z,947.7189331
2023-12-08T01:57:42.783Z,947.7467041
2023-12-08T01:58:44.082Z,947.6504517
2023-12-08T01:59:45.956Z,947.7036133
2023-12-08T02:00:47.282Z,947.7254639
2023-12-08T02:01:49.123Z,947.6514893
2023-12-08T02:02:51.011Z,947.6691895
2023-12-08T02:03:52.721Z,947.7056274
2023-12-08T02:04:53.827Z,947.722168
2023-12-08T02:05:54.636Z,947.7006226
2023-12-08T02:07:27.573Z,947.7330322
2023-12-08T02:08:28.811Z,947.730957
2023-12-08T02:09:29.355Z,947.7878418
2023-12-08T02:10:30.616Z,947.7709351
2023-12-08T02:11:32.204Z,947.7659912
2023-12-08T02:12:33.266Z,947.842041
2023-12-08T02:13:34.822Z,947.8412476
2023-12-08T02:14:36.095Z,947.824585
2023-12-08T02:15:37.749Z,947.8635864
2023-12-08T02:16:39.273Z,947.8987427
2023-12-08T02:17:40.495Z,947.913208
2023-12-08T02:18:41.855Z,947.9108887
2023-12-08T02:19:43.498Z,947.9284668
2023-12-08T02:20:44.932Z,947.937561
2023-12-08T02:21:46.257Z,947.9302979
2023-12-08T02:22:48.184Z,947.9056396
2023-12-08T02:23:49.915Z,947.9124756
2023-12-08T02:24:51.627Z,947.8883057
2023-12-08T02:25:52.748Z,947.9436646
2023-12-08T02:26:53.676Z,947.9852905
2023-12-08T02:27:55.001Z,948.0739136
2023-12-08T02:29:26.781Z,947.9961548
2023-12-08T02:30:28.067Z,948.1063843
2023-12-08T02:31:29.732Z,948.0710449
2023-12-08T02:32:31.198Z,948.0321655
2023-12-08T02:33:31.926Z,948.0684204
2023-12-08T02:34:33.062Z,948.088623
2023-12-08T02:35:33.997Z,948.1473999
2023-12-08T02:36:35.910Z,948.0962524
2023-12-08T02:37:37.450Z,948.0987549
2023-12-08T02:38:39.020Z,948.1425171
2023-12-08T02:39:39.786Z,948.1233521
2023-12-08T02:40:41.070Z,948.1677246
2023-12-08T02:41:42.731Z,948.102478
2023-12-08T02:42:44.015Z,948.1184082
2023-12-08T02:43:45.702Z,948.2005615
2023-12-08T02:44:47.079Z,948.1582642
2023-12-08T02:45:48.502Z,948.1992188
2023-12-08T02:46:50.634Z,948.2246704
2023-12-08T02:47:52.106Z,948.2485962
2023-12-08T02:48:55.379Z,948.2578125
2023-12-08T02:49:55.026Z,948.2709351
2023-12-08T02:51:26.796Z,948.2398682
2023-12-08T02:52:28.425Z,948.2848511
2023-12-08T02:53:30.067Z,948.3171997
2023-12-08T02:54:31.625Z,948.3132935
2023-12-08T02:55:32.795Z,948.3230591
2023-12-08T02:56:33.355Z,948.3379517
2023-12-08T02:57:34.923Z,948.3061523
2023-12-08T02:58:36.786Z,948.2896729
2023-12-08T02:59:38.765Z,948.2952271
2023-12-08T03:00:40.298Z,948.2840576
2023-12-08T03:01:41.799Z,948.2918701
2023-12-08T03:02:42.411Z,948.2979736
2023-12-08T03:03:44.066Z,948.3182983
2023-12-08T03:04:45.087Z,948.3490601
2023-12-08T03:05:46.947Z,948.3504639
2023-12-08T03:06:47.994Z,948.3390503
2023-12-08T03:07:49.635Z,948.3464355
2023-12-08T03:08:51.094Z,948.3219604
2023-12-08T03:09:52.796Z,948.3579712
2023-12-08T03:10:53.978Z,948.3688965
2023-12-08T03:11:55.658Z,948.4578857
2023-12-08T03:13:27.076Z,948.373291
2023-12-08T03:14:28.907Z,948.5040894
2023-12-08T03:15:30.033Z,948.4204712
2023-12-08T03:16:31.877Z,948.4743042
2023-12-08T03:17:33.156Z,948.4206543
2023-12-08T03:18:35.094Z,948.4855957
2023-12-08T03:19:36.083Z,948.5084229
2023-12-08T03:20:37.813Z,948.5321655
2023-12-08T03:21:38.286Z,948.5631104
2023-12-08T03:22:39.727Z,948.5392456
2023-12-08T03:23:40.849Z,948.553772
2023-12-08T03:24:42.787Z,948.5965576
2023-12-08T03:25:44.264Z,948.5578003
2023-12-08T03:26:45.780Z,948.5924072
2023-12-08T03:27:47.074Z,948.5789185
2023-12-08T03:28:48.248Z,948.5784912
2023-12-08T03:29:48.921Z,948.6228027
2023-12-08T03:30:50.466Z,948.625061
2023-12-08T03:31:51.546Z,948.6359253
2023-12-08T03:32:53.511Z,948.5773315
2023-12-08T03:33:54.708Z,948.6572876
2023-12-08T03:35:27.791Z,948.7091675
2023-12-08T03:36:29.278Z,948.6998291
2023-12-08T03:37:30.760Z,948.7076416
2023-12-08T03:38:31.781Z,948.7072144
2023-12-08T03:39:33.749Z,948.7373657
2023-12-08T03:40:35.275Z,948.7354126
2023-12-08T03:41:36.787Z,948.7376709
2023-12-08T03:42:38.247Z,948.7487793
2023-12-08T03:43:40.048Z,948.7746582
2023-12-08T03:44:41.525Z,948.7262573
2023-12-08T03:45:42.717Z,948.7750244
2023-12-08T03:46:44.025Z,948.7578735
2023-12-08T03:47:45.753Z,948.7731323
2023-12-08T03:48:47.070Z,948.824585
2023-12-08T03:49:48.213Z,948.8261108
2023-12-08T03:50:49.246Z,948.8098145
2023-12-08T03:51:51.096Z,948.8526611
2023-12-08T03:52:52.250Z,948.8345337
2023-12-08T03:53:52.847Z,948.8266602
2023-12-08T03:54:53.612Z,948.8379517
2023-12-08T03:55:54.121Z,948.9182129
2023-12-08T03:57:27.081Z,948.9098511
2023-12-08T03:58:28.280Z,948.8724365
2023-12-08T03:59:29.685Z,948.9271851
2023-12-08T04:00:30.778Z,948.9152222
2023-12-08T04:01:32.608Z,948.9525146
2023-12-08T04:02:33.893Z,948.9281006
2023-12-08T04:03:35.801Z,948.9243774
2023-12-08T04:04:36.872Z,948.9447632
2023-12-08T04:05:38.746Z,948.9690552
2023-12-08T04:06:39.162Z,948.9556274
2023-12-08T04:07:39.865Z,948.9884644
2023-12-08T04:08:41.314Z,948.9185181
2023-12-08T04:09:42.762Z,948.9873657
2023-12-08T04:10:44.770Z,948.9813843
2023-12-08T04:11:45.210Z,948.965332
2023-12-08T04:12:46.767Z,949.0211182
2023-12-08T04:13:47.769Z,948.9986572
2023-12-08T04:14:49.547Z,948.9934082
2023-12-08T04:15:51.118Z,949.0388794
2023-12-08T04:16:52.767Z,949.0626831
2023-12-08T04:17:54.057Z,949.1362305
2023-12-08T04:19:26.855Z,949.1026611
2023-12-08T04:20:28.273Z,949.0947876
2023-12-08T04:21:29.772Z,949.1105957
2023-12-08T04:22:31.239Z,949.1200562
2023-12-08T04:23:32.669Z,949.1557617
2023-12-08T04:24:33.746Z,949.187561
2023-12-08T04:25:34.642Z,949.1645508
2023-12-08T04:26:36.078Z,949.1152954
2023-12-08T04:27:37.481Z,949.1635742
2023-12-08T04:28:38.730Z,949.1196289
2023-12-08T04:29:40.616Z,949.102356
2023-12-08T04:30:41.800Z,949.1317749
2023-12-08T04:31:42.428Z,949.1149902
2023-12-08T04:32:43.964Z,949.1325684
2023-12-08T04:33:45.029Z,949.1126709
2023-12-08T04:34:46.863Z,949.117981
2023-12-08T04:35:48.274Z,949.1320801
2023-12-08T04:36:49.803Z,949.09552
2023-12-08T04:37:51.247Z,949.1425171
2023-12-08T04:38:52.775Z,949.1273193
2023-12-08T04:39:54.062Z,949.1589966
2023-12-08T04:41:25.127Z,949.0829468
2023-12-08T04:42:26.703Z,949.1539307
2023-12-08T04:43:27.989Z,949.1520386
2023-12-08T04:44:29.473Z,949.1651611
2023-12-08T04:45:30.576Z,949.1490479
2023-12-08T04:46:32.554Z,949.204895
2023-12-08T04:47:34.173Z,949.1755981
2023-12-08T04:48:36.068Z,949.1378784
2023-12-08T04:49:39.388Z,949.1400757
2023-12-08T04:50:38.782Z,949.199707
2023-12-08T04:51:39.545Z,949.1879883
2023-12-08T04:52:41.071Z,949.2114258
2023-12-08T04:53:42.602Z,949.1599121
2023-12-08T04:54:44.449Z,949.1987305
2023-12-08T04:55:45.481Z,949.2217407
2023-12-08T04:56:46.626Z,949.1813965
2023-12-08T04:57:48.121Z,949.1613159
2023-12-08T04:58:49.587Z,949.1862793
2023-12-08T04:59:50.980Z,949.1688232
2023-12-08T05:00:52.473Z,949.1587524
2023-12-08T05:01:53.703Z,949.243103
2023-12-08T05:03:26.843Z,949.2142334
2023-12-08T05:04:28.274Z,949.2078857
2023-12-08T05:05:30.080Z,949.1925659
2023-12-08T05:06:31.353Z,949.1618652
2023-12-08T05:07:32.289Z,949.1952515
2023-12-08T05:08:33.894Z,949.1381836
2023-12-08T05:09:35.282Z,949.1251831
2023-12-08T05:10:36.748Z,949.1317749
2023-12-08T05:11:37.762Z,949.1203613
2023-12-08T05:12:39.761Z,949.064209
2023-12-08T05:13:40.419Z,949.0617065
2023-12-08T05:14:41.947Z,949.0360718
2023-12-08T05:15:43.440Z,949.0744019
2023-12-08T05:16:45.241Z,949.0823364
2023-12-08T05:17:45.908Z,949.0948486
2023-12-08T05:18:47.727Z,949.0872803
2023-12-08T05:19:49.290Z,949.0620117
2023-12-08T05:20:49.926Z,949.0597534
2023-12-08T05:21:50.367Z,949.0974731
2023-12-08T05:22:50.966Z,949.0864868
2023-12-08T05:23:52.127Z,949.0187378
2023-12-08T05:25:25.289Z,949.0331421
2023-12-08T05:26:27.083Z,949.0324097
2023-12-08T05:27:28.619Z,949.0459595
2023-12-08T05:28:30.077Z,949.0847778
2023-12-08T05:29:31.857Z,949.008728
2023-12-08T05:30:33.266Z,948.993103
2023-12-08T05:31:34.769Z,949.0623169
2023-12-08T05:32:36.283Z,949.052002
2023-12-08T05:33:37.906Z,949.102356
2023-12-08T05:34:39.289Z,949.1310425
2023-12-08T05:35:40.794Z,949.1362305
2023-12-08T05:36:42.176Z,949.1351318
2023-12-08T05:37:43.737Z,949.1478271
2023-12-08T05:38:44.672Z,949.1115723
2023-12-08T05:39:46.039Z,949.1077881
2023-12-08T05:40:47.513Z,949.0928345
2023-12-08T05:41:49.301Z,949.0995483
2023-12-08T05:42:50.762Z,949.0393677
2023-12-08T05:43:51.703Z,949.0498657
2023-12-08T05:44:53.001Z,949.0491333
2023-12-08T05:46:24.784Z,949.0949097
2023-12-08T05:47:26.838Z,949.0893555
2023-12-08T05:48:28.260Z,949.0421753
2023-12-08T05:49:29.760Z,949.0915527
2023-12-08T05:50:30.221Z,949.1074829
2023-12-08T05:51:31.544Z,949.0527954
2023-12-08T05:52:33.053Z,949.0526733
2023-12-08T05:53:34.271Z,949.0057983
2023-12-08T05:54:35.613Z,949.0875854
2023-12-08T05:55:36.136Z,949.0692139
2023-12-08T05:56:37.516Z,949.1133423
2023-12-08T05:57:39.286Z,949.0859375
2023-12-08T05:58:40.244Z,949.0985718
2023-12-08T05:59:41.618Z,949.1115723
2023-12-08T06:00:42.759Z,949.1339722
2023-12-08T06:01:44.224Z,949.1323242
2023-12-08T06:02:45.780Z,949.1228027
2023-12-08T06:03:47.639Z,949.0892334
2023-12-08T06:04:48.203Z,949.1143799
2023-12-08T06:05:49.682Z,949.0968018
2023-12-08T06:06:51.118Z,949.0935669
2023-12-08T06:07:52.597Z,949.130249
2023-12-08T06:09:25.779Z,949.1274414
2023-12-08T06:10:27.561Z,949.1184082
2023-12-08T06:11:28.104Z,949.1015015
2023-12-08T06:12:29.513Z,949.1098633
2023-12-08T06:13:31.454Z,949.1046143
2023-12-08T06:14:32.762Z,949.0797119
2023-12-08T06:15:33.808Z,949.0881348
2023-12-08T06:16:34.367Z,949.0848389
2023-12-08T06:17:36.040Z,949.0470581
2023-12-08T06:18:37.234Z,949.0632324
2023-12-08T06:19:38.753Z,949.0530396
2023-12-08T06:20:40.083Z,949.0703125
2023-12-08T06:21:41.724Z,949.0505981
2023-12-08T06:22:43.019Z,949.0697021
2023-12-08T06:23:44.697Z,949.0518188
2023-12-08T06:24:46.042Z,949.0201416
2023-12-08T06:25:47.722Z,949.0388794
2023-12-08T06:26:49.099Z,949.0119019
2023-12-08T06:27:50.737Z,949.0023193
2023-12-08T06:28:52.120Z,948.9898682
2023-12-08T06:30:24.882Z,949.0161133
2023-12-08T06:31:26.251Z,949.0484619
2023-12-08T06:32:27.896Z,948.9983521
2023-12-08T06:33:29.350Z,948.9829712
2023-12-08T06:34:30.857Z,949.0042114
2023-12-08T06:35:32.275Z,949.0015869
2023-12-08T06:36:33.768Z,948.9559326
2023-12-08T06:37:35.270Z,948.9745483
2023-12-08T06:38:36.774Z,948.9581299
2023-12-08T06:39:38.281Z,948.9837646
2023-12-08T06:40:39.797Z,948.9364014
2023-12-08T06:41:41.359Z,948.9384155
2023-12-08T06:42:42.750Z,948.9441528
2023-12-08T06:43:44.347Z,948.9362793
2023-12-08T06:44:45.868Z,948.9250488
2023-12-08T06:45:47.294Z,948.9260864
2023-12-08T06:46:48.855Z,948.9107056
2023-12-08T06:47:50.638Z,948.8700562
2023-12-08T06:48:52.189Z,948.8146362
2023-12-08T06:50:24.154Z,948.7474976
2023-12-08T06:51:25.770Z,948.7379761
2023-12-08T06:52:27.753Z,948.7469482
2023-12-08T06:53:28.725Z,948.7079468
2023-12-08T06:54:29.990Z,948.6861572
2023-12-08T06:55:31.607Z,948.6685791
2023-12-08T06:56:32.798Z,948.6937256
2023-12-08T06:57:34.736Z,948.7227173
2023-12-08T06:58:35.750Z,948.7301636
2023-12-08T07:00:08.077Z,948.7207031
2023-12-08T07:01:41.162Z,948.7020264
2023-12-08T07:02:42.775Z,948.6860962
2023-12-08T07:03:43.630Z,948.7244263
2023-12-08T07:04:45.225Z,948.7020264
2023-12-08T07:05:49.143Z,948.6768799
2023-12-08T07:06:48.255Z,948.6490479
2023-12-08T07:07:49.564Z,948.6271973
2023-12-08T07:08:51.203Z,948.6367188
2023-12-08T07:10:23.799Z,948.6574707
2023-12-08T07:11:25.263Z,948.7115479
2023-12-08T07:12:27.120Z,948.6553345
2023-12-08T07:13:28.737Z,948.5965576
2023-12-08T07:14:30.073Z,948.6104736
2023-12-08T07:15:30.714Z,948.6671143
2023-12-08T07:16:32.593Z,948.6158447
2023-12-08T07:17:34.188Z,948.6571045
2023-12-08T07:18:36.277Z,948.605835
2023-12-08T07:19:37.631Z,948.6289063
2023-12-08T07:20:38.619Z,948.6570435
2023-12-08T07:21:40.247Z,948.640625
2023-12-08T07:22:41.762Z,948.6033325
2023-12-08T07:23:43.670Z,948.6248169
2023-12-08T07:24:44.163Z,948.5948486
2023-12-08T07:25:45.354Z,948.5854492
2023-12-08T07:26:46.806Z,948.614624
2023-12-08T07:27:48.065Z,948.6017456
2023-12-08T07:28:49.720Z,948.5884399
2023-12-08T07:29:51.084Z,948.5678711
2023-12-08T07:31:22.944Z,948.5690918
2023-12-08T07:32:24.007Z,948.4679565
2023-12-08T07:33:25.868Z,948.4666138
2023-12-08T07:34:26.827Z,948.4786987
2023-12-08T07:35:28.260Z,948.4677124
2023-12-08T07:36:29.239Z,948.4818726
2023-12-08T07:37:31.047Z,948.4484253
2023-12-08T07:38:32.771Z,948.4321899
2023-12-08T07:39:34.252Z,948.4299316
2023-12-08T07:40:35.805Z,948.4448242
2023-12-08T07:41:37.229Z,948.4626465
2023-12-08T07:42:38.725Z,948.3776855
2023-12-08T07:43:40.315Z,948.406189
2023-12-08T07:44:41.752Z,948.4387207
2023-12-08T07:45:43.527Z,948.3839111
2023-12-08T07:46:45.694Z,948.336792
2023-12-08T07:47:49.793Z,948.3726807
2023-12-08T07:48:48.939Z,948.3665771
2023-12-08T07:49:50.311Z,948.3922119
2023-12-08T07:50:52.401Z,948.3856812
2023-12-08T07:52:25.109Z,948.3936157
2023-12-08T07:53:25.791Z,948.4488525
2023-12-08T07:54:27.520Z,948.4547119
2023-12-08T07:55:29.106Z,948.454834
2023-12-08T07:56:30.709Z,948.4159546
2023-12-08T07:57:32.444Z,948.4258423
2023-12-08T07:58:33.482Z,948.4083862
2023-12-08T07:59:35.071Z,948.3959961
2023-12-08T08:00:36.692Z,948.4411011
2023-12-08T08:01:38.115Z,948.4641113
2023-12-08T08:02:39.284Z,948.4508057
2023-12-08T08:03:40.782Z,948.4710693
2023-12-08T08:04:42.245Z,948.4558105
2023-12-08T08:05:43.844Z,948.4762573
2023-12-08T08:06:45.317Z,948.492981
2023-12-08T08:07:46.753Z,948.4715576
2023-12-08T08:08:48.246Z,948.4820557
2023-12-08T08:09:50.140Z,948.5184326
2023-12-08T08:10:51.805Z,948.5527954
2023-12-08T08:12:24.042Z,948.5175171
2023-12-08T08:13:25.708Z,948.5454712
2023-12-08T08:14:29.306Z,948.5979614
2023-12-08T08:15:29.181Z,948.6239014
2023-12-08T08:16:30.955Z,948.5648193
2023-12-08T08:17:32.099Z,948.5965576
2023-12-08T08:18:34.153Z,948.7000122
2023-12-08T08:19:35.033Z,948.69104
2023-12-08T08:20:36.955Z,948.6948242
2023-12-08T08:21:38.135Z,948.7575073
2023-12-08T08:22:39.810Z,948.7323608
2023-12-08T08:23:41.334Z,948.7539063
2023-12-08T08:24:42.775Z,948.7556152
2023-12-08T08:25:44.254Z,948.7377319
2023-12-08T08:26:45.819Z,948.8068848
2023-12-08T08:27:47.299Z,948.8365479
2023-12-08T08:28:48.768Z,948.8131104
2023-12-08T08:29:50.327Z,948.809082
2023-12-08T08:30:52.142Z,948.7748413
2023-12-08T08:32:23.773Z,948.8098145
2023-12-08T08:33:25.911Z,948.8104858
2023-12-08T08:34:26.821Z,948.7880249
2023-12-08T08:35:28.260Z,948.7932739
2023-12-08T08:36:29.740Z,948.8261108
2023-12-08T08:37:31.526Z,948.8063354
2023-12-08T08:38:32.845Z,948.8079834
2023-12-08T08:39:34.250Z,948.8214111
2023-12-08T08:40:35.757Z,948.791748
2023-12-08T08:41:37.288Z,948.8010864
2023-12-08T08:42:38.781Z,948.8218994
2023-12-08T08:43:40.261Z,948.786499
2023-12-08T08:44:41.780Z,948.7974243
2023-12-08T08:45:42.294Z,948.8272095
2023-12-08T08:46:43.701Z,948.8109131
2023-12-08T08:47:45.258Z,948.7929077
2023-12-08T08:48:46.807Z,948.8043213
2023-12-08T08:49:48.390Z,948.8126831
2023-12-08T08:50:50.697Z,948.7995605
2023-12-08T08:51:51.749Z,948.7752075
2023-12-08T08:53:23.898Z,948.7637329
2023-12-08T08:54:25.641Z,948.772522
2023-12-08T08:55:27.494Z,948.7867432
2023-12-08T08:56:29.058Z,948.7767334
2023-12-08T08:57:30.693Z,948.7485962
2023-12-08T08:58:31.855Z,948.7142334
2023-12-08T08:59:32.552Z,948.6902466
2023-12-08T09:00:33.557Z,948.7182617
2023-12-08T09:01:35.007Z,948.689209
2023-12-08T09:02:36.748Z,948.7248535
2023-12-08T09:03:38.362Z,948.6941528
2023-12-08T09:04:40.197Z,948.7489624
2023-12-08T09:05:41.897Z,948.7268677
2023-12-08T09:06:42.698Z,948.6970215
2023-12-08T09:07:44.019Z,948.7027588
2023-12-08T09:08:45.817Z,948.7313843
2023-12-08T09:09:48.041Z,948.7489014
2023-12-08T09:10:49.082Z,948.74646
2023-12-08T09:11:50.069Z,948.7150879
2023-12-08T09:13:23.208Z,948.7490845
2023-12-08T09:14:24.310Z,948.7023315
2023-12-08T09:15:25.777Z,948.751709
2023-12-08T09:16:27.268Z,948.7493896
2023-12-08T09:17:28.798Z,948.8153687
2023-12-08T09:18:30.440Z,948.7871704
2023-12-08T09:19:31.824Z,948.8258057
2023-12-08T09:20:33.290Z,948.8123169
2023-12-08T09:21:42.365Z,948.8060913
2023-12-08T09:22:36.230Z,948.807251
2023-12-08T09:23:37.273Z,948.7897949
2023-12-08T09:24:37.944Z,948.8027954
2023-12-08T09:25:39.114Z,948.826416
2023-12-08T09:26:40.713Z,948.7927246
2023-12-08T09:27:42.310Z,948.7750244
2023-12-08T09:28:43.791Z,948.7959595
2023-12-08T09:29:45.098Z,948.772522
2023-12-08T09:30:46.916Z,948.7915039
2023-12-08T09:31:48.356Z,948.7675781
2023-12-08T09:32:49.915Z,948.765625
2023-12-08T09:33:51.279Z,948.7740479
2023-12-08T09:35:23.589Z,948.7572021
2023-12-08T09:36:25.230Z,948.7515869
2023-12-08T09:37:35.438Z,948.7576294
2023-12-08T09:38:33.220Z,948.7420044
2023-12-08T09:39:29.681Z,948.7750244
2023-12-08T09:40:31.029Z,948.7793579
2023-12-08T09:41:32.722Z,948.8609619
2023-12-08T09:42:34.087Z,948.8726807
2023-12-08T09:43:36.296Z,948.8998413
2023-12-08T09:44:37.421Z,948.8724365
2023-12-08T09:45:38.557Z,948.8557739
2023-12-08T09:46:40.760Z,948.8845215
2023-12-08T09:47:42.310Z,948.8465576
2023-12-08T09:48:43.668Z,948.8520508
2023-12-08T09:49:44.730Z,948.8146973
2023-12-08T09:50:46.049Z,948.8661499
2023-12-08T09:51:47.727Z,948.8290405
2023-12-08T09:52:49.124Z,948.8843994
2023-12-08T09:53:51.103Z,948.8236084
2023-12-08T09:55:23.737Z,948.8740845
2023-12-08T09:56:25.399Z,948.8272095
2023-12-08T09:57:27.120Z,948.8057861
2023-12-08T09:58:28.767Z,948.796875
2023-12-08T09:59:30.337Z,948.7929688
2023-12-08T10:00:31.767Z,948.7583618
2023-12-08T10:01:33.234Z,948.7452393
2023-12-08T10:02:34.788Z,948.7411499
2023-12-08T10:03:36.324Z,948.7039185
2023-12-08T10:04:37.771Z,948.7229614
2023-12-08T10:05:39.339Z,948.6867065
2023-12-08T10:06:40.005Z,948.7227173
2023-12-08T10:07:41.513Z,948.7352905
2023-12-08T10:08:42.722Z,948.7372437
2023-12-08T10:09:44.329Z,948.6726685
2023-12-08T10:10:46.130Z,948.7150269
2023-12-08T10:11:47.761Z,948.6799316
2023-12-08T10:12:49.259Z,948.6842041
2023-12-08T10:13:50.845Z,948.6606445
2023-12-08T10:15:22.623Z,948.6425171
2023-12-08T10:16:23.994Z,948.6620483
2023-12-08T10:17:26.246Z,948.6381226
2023-12-08T10:18:27.366Z,948.6290894
2023-12-08T10:19:28.653Z,948.6237793
2023-12-08T10:20:29.760Z,948.5720215
2023-12-08T10:21:31.214Z,948.5332642
2023-12-08T10:22:32.734Z,948.4959106
2023-12-08T10:23:34.242Z,948.4940796
2023-12-08T10:24:35.790Z,948.4995117
2023-12-08T10:25:37.260Z,948.519043
2023-12-08T10:26:38.805Z,948.4992065
2023-12-08T10:27:40.241Z,948.4470215
2023-12-08T10:28:41.828Z,948.3803101
2023-12-08T10:29:43.084Z,948.3855591
2023-12-08T10:30:44.781Z,948.3510132
2023-12-08T10:31:46.646Z,948.359436
2023-12-08T10:32:48.043Z,948.3690796
2023-12-08T10:33:49.651Z,948.3956299
2023-12-08T10:35:22.607Z,948.414856
2023-12-08T10:36:23.777Z,948.3965454
2023-12-08T10:37:25.871Z,948.427124
2023-12-08T10:38:26.741Z,948.3981934
2023-12-08T10:39:27.659Z,948.3590698
2023-12-08T10:40:29.060Z,948.3533325
2023-12-08T10:41:30.571Z,948.3409424
2023-12-08T10:42:32.087Z,948.3236084
2023-12-08T10:43:33.537Z,948.3557739
2023-12-08T10:44:35.888Z,948.3521729
2023-12-08T10:45:36.499Z,948.3655396
2023-12-08T10:46:38.224Z,948.3432617
2023-12-08T10:47:39.841Z,948.3574829
2023-12-08T10:48:40.825Z,948.3956299
2023-12-08T10:49:42.067Z,948.3516235
2023-12-08T10:50:43.709Z,948.3513794
2023-12-08T10:51:44.351Z,948.3706055
2023-12-08T10:52:45.338Z,948.3700562
2023-12-08T10:53:46.617Z,948.4107666
2023-12-08T10:54:48.073Z,948.3815918
2023-12-08T10:55:50.409Z,948.3052979
2023-12-08T10:57:22.587Z,948.2573242
2023-12-08T10:58:24.050Z,948.2340698
2023-12-08T10:59:25.732Z,948.196106
2023-12-08T11:00:26.195Z,948.2525024
2023-12-08T11:01:26.864Z,948.2067261
2023-12-08T11:02:28.500Z,948.2631226
2023-12-08T11:03:29.274Z,948.3029175
2023-12-08T11:04:30.888Z,948.3019409
2023-12-08T11:05:32.081Z,948.3153076
2023-12-08T11:06:33.840Z,948.2675171
2023-12-08T11:07:36.230Z,948.3181152
2023-12-08T11:08:37.541Z,948.2962646
2023-12-08T11:09:39.013Z,948.2754517
2023-12-08T11:10:40.840Z,948.2798462
2023-12-08T11:11:42.015Z,948.2853394
2023-12-08T11:12:43.731Z,948.2943726
2023-12-08T11:13:45.245Z,948.2720337
2023-12-08T11:14:46.065Z,948.3113403
2023-12-08T11:15:47.587Z,948.3284302
2023-12-08T11:16:48.840Z,948.2595215
2023-12-08T11:18:21.318Z,948.2429199
2023-12-08T11:19:24.558Z,948.2888794
2023-12-08T11:20:24.474Z,948.2723389
2023-12-08T11:21:25.472Z,948.2559204
2023-12-08T11:22:26.517Z,948.2637329
2023-12-08T11:23:28.317Z,948.2515869